Time;durP1;ratioP1;P1;durP2;ratioP2;P2;SDS_P1;SDS_P2;PMS_P1;PMS_P2;Temp;Humidity;BMP_temperature;BMP_pressure;BME280_temperature;BME280_humidity;BME280_pressure;Samples;Min_cycle;Max_cycle;Signal;HPM_P1;HPM_P2
2021/05/22 00:00:50;;;;;;;6.13;2.10;;;;;;;;;;6243086;22;20196;-73
2021/05/22 00:03:34;;;;;;;5.87;2.50;;;;;;;;;;6242720;23;20172;-74
2021/05/22 00:06:19;;;;;;;3.90;2.20;;;;;;;;;;6242249;23;20173;-73
2021/05/22 00:09:04;;;;;;;3.20;2.30;;;;;;;;;;6242811;23;20172;-73
2021/05/22 00:11:48;;;;;;;6.13;2.40;;;;;;;;;;6242565;23;20197;-73
2021/05/22 00:14:33;;;;;;;4.03;1.90;;;;;;;;;;6242795;23;20169;-74
2021/05/22 00:17:18;;;;;;;3.73;2.20;;;;;;;;;;6242328;23;20185;-73
2021/05/22 00:20:03;;;;;;;7.10;2.30;;;;;;;;;;6242679;22;20587;-73
2021/05/22 00:22:47;;;;;;;6.60;2.27;;;;;;;;;;6243530;23;20182;-73
2021/05/22 00:25:32;;;;;;;4.73;2.23;;;;;;;;;;6242473;23;20261;-74
2021/05/22 00:28:17;;;;;;;4.20;1.87;;;;;;;;;;6243012;23;20169;-73
2021/05/22 00:31:01;;;;;;;5.10;2.13;;;;;;;;;;6242425;22;20668;-74
2021/05/22 00:33:46;;;;;;;6.25;2.47;;;;;;;;;;6242103;23;20886;-74
2021/05/22 00:36:31;;;;;;;5.70;2.47;;;;;;;;;;6242307;23;20185;-74
2021/05/22 00:39:16;;;;;;;5.57;2.30;;;;;;;;;;6244450;22;20208;-74
2021/05/22 00:42:04;;;;;;;3.33;1.80;;;;;;;;;;6244536;23;20734;-74
2021/05/22 00:45:18;;;;;;;5.80;2.17;;;;;;;;;;6244655;23;20623;-74
2021/05/22 00:48:03;;;;;;;5.70;2.10;;;;;;;;;;6121797;23;20171;-73
2021/05/22 00:50:51;;;;;;;6.40;2.20;;;;;;;;;;6244312;22;20220;-73
2021/05/22 00:53:36;;;;;;;5.40;1.97;;;;;;;;;;6244361;23;20252;-74
2021/05/22 00:56:21;;;;;;;4.90;2.30;;;;;;;;;;6243851;23;20595;-74
2021/05/22 00:59:05;;;;;;;7.60;2.17;;;;;;;;;;6244331;23;20208;-73
2021/05/22 01:01:50;;;;;;;6.60;2.40;;;;;;;;;;6244419;23;20249;-74
2021/05/22 01:04:34;;;;;;;7.10;1.97;;;;;;;;;;6244990;23;20227;-74
2021/05/22 01:07:20;;;;;;;6.87;2.33;;;;;;;;;;6243264;23;20173;-74
2021/05/22 01:10:05;;;;;;;5.47;1.87;;;;;;;;;;6244259;22;20255;-74
2021/05/22 01:12:51;;;;;;;7.10;2.27;;;;;;;;;;6244354;23;20655;-73
2021/05/22 01:15:37;;;;;;;5.93;2.00;;;;;;;;;;6243809;23;20524;-73
2021/05/22 01:18:22;;;;;;;7.87;2.07;;;;;;;;;;6244211;23;20216;-74
2021/05/22 01:21:07;;;;;;;4.97;1.90;;;;;;;;;;6244492;22;20327;-74
2021/05/22 01:23:56;;;;;;;4.53;1.83;;;;;;;;;;6244375;23;20173;-73
2021/05/22 01:26:41;;;;;;;4.90;2.40;;;;;;;;;;6242221;23;20359;-74
2021/05/22 01:29:26;;;;;;;9.43;2.23;;;;;;;;;;6244079;22;20172;-74
2021/05/22 01:32:11;;;;;;;4.47;1.67;;;;;;;;;;6243816;23;20528;-74
2021/05/22 01:34:56;;;;;;;9.00;2.13;;;;;;;;;;6244213;23;20264;-73
2021/05/22 01:37:41;;;;;;;6.00;2.27;;;;;;;;;;6244111;23;20257;-73
2021/05/22 01:40:25;;;;;;;5.60;1.80;;;;;;;;;;6243880;22;20251;-73
2021/05/22 01:43:10;;;;;;;6.90;2.10;;;;;;;;;;6244113;23;20556;-73
2021/05/22 01:45:55;;;;;;;4.30;2.07;;;;;;;;;;6243629;23;20176;-74
2021/05/22 01:48:40;;;;;;;6.80;2.20;;;;;;;;;;6243308;23;20169;-74
2021/05/22 01:51:25;;;;;;;6.27;2.23;;;;;;;;;;6243903;22;20679;-73
2021/05/22 01:54:10;;;;;;;7.90;2.10;;;;;;;;;;6244072;23;20170;-74
2021/05/22 01:56:55;;;;;;;3.20;1.70;;;;;;;;;;6243534;23;20177;-74
2021/05/22 01:59:40;;;;;;;6.20;2.00;;;;;;;;;;6243865;22;20255;-73
2021/05/22 02:02:25;;;;;;;6.57;2.35;;;;;;;;;;6242356;23;20895;-74
2021/05/22 02:05:10;;;;;;;3.43;2.17;;;;;;;;;;6243169;23;20173;-74
2021/05/22 02:07:56;;;;;;;4.50;1.73;;;;;;;;;;6243899;23;20487;-74
2021/05/22 02:10:41;;;;;;;5.27;1.93;;;;;;;;;;6243829;22;20755;-74
2021/05/22 02:13:26;;;;;;;2.67;1.57;;;;;;;;;;6243816;23;20196;-74
2021/05/22 02:16:12;;;;;;;3.83;1.80;;;;;;;;;;6243357;23;20710;-73
2021/05/22 02:18:58;;;;;;;5.07;2.00;;;;;;;;;;6243977;23;20172;-73
2021/05/22 02:21:44;;;;;;;3.73;2.10;;;;;;;;;;6244061;23;20169;-74
2021/05/22 02:24:29;;;;;;;4.73;2.00;;;;;;;;;;6243593;23;20169;-73
2021/05/22 02:27:13;;;;;;;3.10;1.90;;;;;;;;;;6243057;23;20164;-74
2021/05/22 02:29:58;;;;;;;6.13;1.80;;;;;;;;;;6243536;22;20204;-74
2021/05/22 02:32:45;;;;;;;4.30;2.17;;;;;;;;;;6243302;23;20645;-73
2021/05/22 02:35:30;;;;;;;4.30;2.13;;;;;;;;;;6242804;23;20308;-73
2021/05/22 02:38:19;;;;;;;4.40;1.90;;;;;;;;;;6243450;23;20176;-74
2021/05/22 02:41:05;;;;;;;5.47;1.97;;;;;;;;;;6243206;22;20516;-73
2021/05/22 02:43:51;;;;;;;6.03;2.00;;;;;;;;;;6243315;23;20243;-73
2021/05/22 02:46:38;;;;;;;4.80;1.87;;;;;;;;;;6242834;23;20169;-74
2021/05/22 02:49:25;;;;;;;4.07;1.77;;;;;;;;;;6243491;22;20250;-72
2021/05/22 02:52:11;;;;;;;4.33;1.93;;;;;;;;;;6242797;23;20424;-73
2021/05/22 02:54:56;;;;;;;6.67;1.83;;;;;;;;;;6243146;23;20212;-74
2021/05/22 02:57:41;;;;;;;4.83;1.93;;;;;;;;;;6243469;23;20669;-73
2021/05/22 03:00:25;;;;;;;1.90;1.40;;;;;;;;;;6243020;22;20249;-73
2021/05/22 03:03:10;;;;;;;3.87;1.70;;;;;;;;;;6243093;23;20169;-74
2021/05/22 03:05:55;;;;;;;4.50;1.80;;;;;;;;;;6242967;23;20215;-73
2021/05/22 03:08:43;;;;;;;6.10;2.00;;;;;;;;;;6242422;23;20361;-73
2021/05/22 03:11:28;;;;;;;4.20;1.70;;;;;;;;;;6243227;23;20403;-74
2021/05/22 03:14:13;;;;;;;5.13;1.87;;;;;;;;;;6243708;23;20220;-74
2021/05/22 03:16:58;;;;;;;2.57;1.37;;;;;;;;;;6242694;23;20627;-73
2021/05/22 03:19:42;;;;;;;4.27;1.53;;;;;;;;;;6243151;22;20204;-74
2021/05/22 03:22:28;;;;;;;2.60;1.57;;;;;;;;;;6243106;23;20174;-73
2021/05/22 03:25:13;;;;;;;3.33;1.73;;;;;;;;;;6242386;23;20611;-74
2021/05/22 03:27:57;;;;;;;6.00;1.63;;;;;;;;;;6243048;23;20207;-73
2021/05/22 03:30:42;;;;;;;4.37;1.70;;;;;;;;;;6243063;22;20200;-74
2021/05/22 03:33:26;;;;;;;5.30;1.80;;;;;;;;;;6242906;23;20243;-73
2021/05/22 03:36:11;;;;;;;3.60;1.63;;;;;;;;;;6242375;23;20208;-74
2021/05/22 03:38:56;;;;;;;6.07;1.80;;;;;;;;;;6243060;23;20177;-73
2021/05/22 03:41:41;;;;;;;4.43;1.60;;;;;;;;;;6243262;23;20271;-73
2021/05/22 03:44:25;;;;;;;2.60;1.13;;;;;;;;;;6242995;23;20188;-73
2021/05/22 03:47:10;;;;;;;3.70;1.65;;;;;;;;;;6240975;23;20398;-73
2021/05/22 03:49:54;;;;;;;3.60;1.47;;;;;;;;;;6242962;22;20200;-73
2021/05/22 03:52:39;;;;;;;4.97;1.60;;;;;;;;;;6242981;23;20200;-73
2021/05/22 03:55:25;;;;;;;4.67;1.40;;;;;;;;;;6242203;23;20627;-73
2021/05/22 03:58:09;;;;;;;2.60;1.37;;;;;;;;;;6243092;23;20173;-73
2021/05/22 04:00:54;;;;;;;3.95;1.80;;;;;;;;;;6242724;22;20372;-74
2021/05/22 04:03:38;;;;;;;6.53;1.80;;;;;;;;;;6242826;23;20193;-73
2021/05/22 04:06:23;;;;;;;5.70;1.70;;;;;;;;;;6242505;23;20189;-73
2021/05/22 04:09:07;;;;;;;5.57;1.53;;;;;;;;;;6242962;22;20189;-73
2021/05/22 04:11:52;;;;;;;3.30;1.67;;;;;;;;;;6243165;23;20192;-73
2021/05/22 04:14:37;;;;;;;3.93;1.80;;;;;;;;;;6244923;23;20168;-73
2021/05/22 04:17:22;;;;;;;5.90;1.77;;;;;;;;;;6244281;23;20545;-73
2021/05/22 04:20:07;;;;;;;3.47;1.70;;;;;;;;;;6245536;22;20209;-74
2021/05/22 04:22:51;;;;;;;4.63;1.63;;;;;;;;;;6244669;23;20173;-73
2021/05/22 04:25:36;;;;;;;2.63;1.60;;;;;;;;;;6244069;23;20184;-73
2021/05/22 04:28:21;;;;;;;4.80;2.00;;;;;;;;;;6244927;23;20169;-73
2021/05/22 04:31:06;;;;;;;4.47;2.07;;;;;;;;;;6244569;22;20200;-73
2021/05/22 04:33:50;;;;;;;5.37;1.87;;;;;;;;;;6244817;23;20181;-73
2021/05/22 04:36:35;;;;;;;5.32;1.98;;;;;;;;;;6243851;23;20770;-73
2021/05/22 04:39:19;;;;;;;3.77;1.67;;;;;;;;;;6244380;22;20220;-73
2021/05/22 04:42:04;;;;;;;3.60;1.77;;;;;;;;;;6244512;23;20247;-73
2021/05/22 04:44:50;;;;;;;6.80;1.87;;;;;;;;;;6244572;23;20241;-73
2021/05/22 04:47:35;;;;;;;5.03;1.90;;;;;;;;;;6244566;23;20213;-73
2021/05/22 04:50:19;;;;;;;4.77;1.77;;;;;;;;;;6244383;22;20201;-73
2021/05/22 04:53:04;;;;;;;5.65;2.10;;;;;;;;;;6243797;23;20842;-73
2021/05/22 04:55:48;;;;;;;5.30;1.57;;;;;;;;;;6243763;23;20189;-73
2021/05/22 04:58:33;;;;;;;5.00;2.20;;;;;;;;;;6244773;23;20775;-73
2021/05/22 05:01:18;;;;;;;5.80;2.20;;;;;;;;;;6244714;23;20169;-73
2021/05/22 05:04:03;;;;;;;4.47;1.90;;;;;;;;;;6244567;23;20241;-73
2021/05/22 05:06:47;;;;;;;6.00;1.87;;;;;;;;;;6243888;23;20371;-73
2021/05/22 05:09:33;;;;;;;6.83;2.20;;;;;;;;;;6244304;22;20200;-73
2021/05/22 05:12:18;;;;;;;4.33;2.00;;;;;;;;;;6244285;23;20219;-73
2021/05/22 05:15:02;;;;;;;7.53;2.20;;;;;;;;;;6244059;23;20207;-73
2021/05/22 05:17:47;;;;;;;8.40;2.30;;;;;;;;;;6244669;23;20502;-73
2021/05/22 05:20:32;;;;;;;7.23;2.10;;;;;;;;;;6244030;22;20269;-73
2021/05/22 05:23:16;;;;;;;6.77;2.13;;;;;;;;;;6244186;23;20495;-73
2021/05/22 05:26:01;;;;;;;5.60;2.10;;;;;;;;;;6243572;23;20245;-73
2021/05/22 05:28:46;;;;;;;7.33;2.53;;;;;;;;;;6244394;23;20543;-73
2021/05/22 05:31:30;;;;;;;5.73;2.33;;;;;;;;;;6243951;23;20169;-73
2021/05/22 05:34:15;;;;;;;7.77;2.30;;;;;;;;;;6243965;23;20215;-73
2021/05/22 05:37:00;;;;;;;9.20;2.50;;;;;;;;;;6243592;23;20169;-73
2021/05/22 05:39:44;;;;;;;6.60;2.20;;;;;;;;;;6244013;22;20666;-73
2021/05/22 05:42:29;;;;;;;5.77;1.90;;;;;;;;;;6243779;23;20180;-73
2021/05/22 05:45:14;;;;;;;6.78;2.58;;;;;;;;;;6242661;23;20404;-73
2021/05/22 05:47:59;;;;;;;7.20;2.60;;;;;;;;;;6243984;23;20220;-73
2021/05/22 05:50:44;;;;;;;5.90;2.63;;;;;;;;;;6243788;22;20695;-73
2021/05/22 05:53:29;;;;;;;4.83;2.30;;;;;;;;;;6243781;23;20223;-73
2021/05/22 05:56:13;;;;;;;5.40;2.10;;;;;;;;;;6243383;23;20249;-73
2021/05/22 05:58:58;;;;;;;6.10;2.47;;;;;;;;;;6243767;22;20168;-73
2021/05/22 06:01:42;;;;;;;5.97;2.23;;;;;;;;;;6244015;23;20200;-73
2021/05/22 06:04:27;;;;;;;7.30;2.37;;;;;;;;;;6244098;23;20215;-73
2021/05/22 06:07:12;;;;;;;6.80;2.43;;;;;;;;;;6242945;23;20195;-73
2021/05/22 06:09:57;;;;;;;3.93;2.03;;;;;;;;;;6243729;22;20199;-74
2021/05/22 06:12:43;;;;;;;8.40;2.37;;;;;;;;;;6243494;23;20284;-73
2021/05/22 06:15:31;;;;;;;7.60;2.33;;;;;;;;;;6243250;23;20172;-73
2021/05/22 06:18:16;;;;;;;7.43;2.73;;;;;;;;;;6244039;23;20208;-74
2021/05/22 06:21:01;;;;;;;5.90;2.30;;;;;;;;;;6242528;22;20692;-73
2021/05/22 06:23:47;;;;;;;6.90;2.30;;;;;;;;;;6243731;23;20636;-74
2021/05/22 06:26:32;;;;;;;7.37;2.27;;;;;;;;;;6242957;23;20509;-73
2021/05/22 06:29:16;;;;;;;6.50;2.13;;;;;;;;;;6243812;22;20201;-73
2021/05/22 06:32:01;;;;;;;7.23;2.03;;;;;;;;;;6243433;23;20320;-73
2021/05/22 06:34:46;;;;;;;5.33;2.40;;;;;;;;;;6243165;23;20640;-75
2021/05/22 06:37:31;;;;;;;6.85;2.88;;;;;;;;;;6242143;23;20423;-73
2021/05/22 06:40:16;;;;;;;6.53;2.63;;;;;;;;;;6243467;22;20289;-73
2021/05/22 06:43:01;;;;;;;5.33;2.37;;;;;;;;;;6243234;23;20169;-73
2021/05/22 06:45:55;;;;;;;6.33;2.60;;;;;;;;;;6242915;23;20227;-73
2021/05/22 06:48:40;;;;;;;4.73;2.23;;;;;;;;;;6243241;22;20307;-73
2021/05/22 06:51:24;;;;;;;6.93;2.67;;;;;;;;;;6243438;23;20172;-73
2021/05/22 06:54:08;;;;;;;6.13;2.63;;;;;;;;;;6243428;23;20177;-73
2021/05/22 06:56:54;;;;;;;4.43;2.30;;;;;;;;;;6242922;23;20185;-74
2021/05/22 06:59:39;;;;;;;6.33;2.57;;;;;;;;;;6243480;22;20201;-74
2021/05/22 07:02:23;;;;;;;5.10;2.40;;;;;;;;;;6243304;23;20510;-74
2021/05/22 07:05:08;;;;;;;5.43;2.30;;;;;;;;;;6242510;23;20219;-73
2021/05/22 07:07:54;;;;;;;4.97;2.50;;;;;;;;;;6243294;23;20188;-73
2021/05/22 07:10:39;;;;;;;6.47;2.90;;;;;;;;;;6242799;22;20402;-74
2021/05/22 07:13:24;;;;;;;6.13;2.30;;;;;;;;;;6243019;23;20201;-73
2021/05/22 07:16:08;;;;;;;6.47;2.37;;;;;;;;;;6242586;23;20494;-73
2021/05/22 07:18:53;;;;;;;4.67;2.57;;;;;;;;;;6242972;22;20172;-73
2021/05/22 07:21:37;;;;;;;5.37;2.63;;;;;;;;;;6243074;23;20228;-74
2021/05/22 07:24:22;;;;;;;5.50;2.70;;;;;;;;;;6243406;23;20228;-72
2021/05/22 07:27:07;;;;;;;5.97;2.97;;;;;;;;;;6241996;23;20408;-74
2021/05/22 07:29:52;;;;;;;6.57;2.80;;;;;;;;;;6242884;22;20289;-73
2021/05/22 07:32:37;;;;;;;6.20;2.67;;;;;;;;;;6243056;23;20232;-74
2021/05/22 07:35:21;;;;;;;5.37;2.87;;;;;;;;;;6242473;23;20647;-74
2021/05/22 07:38:06;;;;;;;4.53;2.50;;;;;;;;;;6243208;23;20298;-73
2021/05/22 07:40:50;;;;;;;6.77;2.70;;;;;;;;;;6243173;22;20251;-74
2021/05/22 07:43:35;;;;;;;7.30;2.80;;;;;;;;;;6243086;23;20205;-74
2021/05/22 07:46:20;;;;;;;3.53;2.23;;;;;;;;;;6243023;23;20544;-74
2021/05/22 07:49:05;;;;;;;5.20;2.20;;;;;;;;;;6245036;22;20199;-74
2021/05/22 07:51:50;;;;;;;4.80;2.27;;;;;;;;;;6245337;23;20493;-74
2021/05/22 07:54:35;;;;;;;3.60;2.27;;;;;;;;;;6245079;23;20169;-74
2021/05/22 07:57:20;;;;;;;4.60;2.10;;;;;;;;;;6244357;23;20247;-74
2021/05/22 08:00:05;;;;;;;4.43;2.17;;;;;;;;;;6244900;22;20277;-73
2021/05/22 08:02:50;;;;;;;3.55;2.20;;;;;;;;;;6244726;23;20392;-74
2021/05/22 08:05:35;;;;;;;3.90;2.30;;;;;;;;;;6244104;23;20667;-74
2021/05/22 08:08:20;;;;;;;2.13;1.90;;;;;;;;;;6244810;23;20644;-74
2021/05/22 08:11:04;;;;;;;3.80;1.90;;;;;;;;;;6244724;23;20211;-74
2021/05/22 08:13:49;;;;;;;3.23;1.87;;;;;;;;;;6244687;23;20284;-74
2021/05/22 08:16:34;;;;;;;4.57;2.20;;;;;;;;;;6244095;23;20188;-74
2021/05/22 08:19:19;;;;;;;3.88;2.20;;;;;;;;;;6243905;22;20385;-74
2021/05/22 08:22:04;;;;;;;3.83;2.40;;;;;;;;;;6244936;23;20269;-74
2021/05/22 08:24:49;;;;;;;3.03;2.20;;;;;;;;;;6244805;23;20469;-73
2021/05/22 08:27:33;;;;;;;2.33;1.80;;;;;;;;;;6244540;23;20174;-74
2021/05/22 08:30:18;;;;;;;3.23;2.10;;;;;;;;;;6244578;22;20199;-76
2021/05/22 08:33:03;;;;;;;2.33;2.00;;;;;;;;;;6244102;23;20312;-72
2021/05/22 08:35:48;;;;;;;4.57;2.30;;;;;;;;;;6243713;23;20184;-72
2021/05/22 08:38:33;;;;;;;4.30;2.47;;;;;;;;;;6244396;22;20165;-75
2021/05/22 08:41:17;;;;;;;3.13;2.20;;;;;;;;;;6244255;23;20169;-71
2021/05/22 08:44:02;;;;;;;2.57;2.37;;;;;;;;;;6241563;23;20490;-72
2021/05/22 08:46:47;;;;;;;3.63;2.50;;;;;;;;;;6241381;23;20172;-72
2021/05/22 08:49:40;;;;;;;2.97;2.67;;;;;;;;;;6242456;22;20276;-73
2021/05/22 08:52:26;;;;;;;5.10;2.80;;;;;;;;;;6242604;23;20260;-73
2021/05/22 08:55:11;;;;;;;3.87;2.60;;;;;;;;;;6241745;23;20177;-73
2021/05/22 08:57:55;;;;;;;4.83;2.80;;;;;;;;;;6241980;23;20219;-73
2021/05/22 09:00:41;;;;;;;2.87;2.67;;;;;;;;;;6242590;22;20205;-72
2021/05/22 09:03:25;;;;;;;3.13;2.40;;;;;;;;;;6242371;23;20180;-72
2021/05/22 09:06:10;;;;;;;2.67;2.47;;;;;;;;;;6241656;23;20513;-80
2021/05/22 09:08:59;;;;;;;3.77;2.70;;;;;;;;;;6241641;22;20279;-75
2021/05/22 09:11:46;;;;;;;5.38;3.40;;;;;;;;;;6241111;23;20427;-78
2021/05/22 09:14:47;;;;;;;3.77;2.87;;;;;;;;;;6242639;23;20178;-75
2021/05/22 09:17:32;;;;;;;4.47;3.13;;;;;;;;;;6242687;23;20216;-77
2021/05/22 09:20:19;;;;;;;4.57;3.30;;;;;;;;;;6241878;22;20199;-71
2021/05/22 09:23:05;;;;;;;3.50;3.20;;;;;;;;;;6241695;23;20511;-71
2021/05/22 09:25:52;;;;;;;5.57;3.30;;;;;;;;;;6241282;23;20175;-71
2021/05/22 09:28:37;;;;;;;6.57;3.60;;;;;;;;;;6241972;22;20209;-74
2021/05/22 09:31:23;;;;;;;4.63;3.60;;;;;;;;;;6241812;23;20173;-75
2021/05/22 09:34:09;;;;;;;4.03;3.37;;;;;;;;;;6241696;23;20533;-72
2021/05/22 09:36:54;;;;;;;4.20;3.90;;;;;;;;;;6240963;23;20172;-72
2021/05/22 09:39:46;;;;;;;4.30;3.87;;;;;;;;;;6241864;22;20680;-72
2021/05/22 09:42:31;;;;;;;4.27;3.93;;;;;;;;;;6241781;23;20172;-73
2021/05/22 09:45:21;;;;;;;5.40;4.47;;;;;;;;;;6241437;23;20172;-73
2021/05/22 09:48:10;;;;;;;4.60;4.20;;;;;;;;;;6243417;23;20501;-74
2021/05/22 09:50:55;;;;;;;5.37;3.97;;;;;;;;;;6243685;23;20274;-73
2021/05/22 09:53:39;;;;;;;4.67;3.40;;;;;;;;;;6243609;23;20200;-73
2021/05/22 09:56:25;;;;;;;4.13;3.47;;;;;;;;;;6243314;23;20616;-73
2021/05/22 09:59:13;;;;;;;6.60;3.77;;;;;;;;;;6243603;22;20588;-73
2021/05/22 10:01:59;;;;;;;4.47;3.47;;;;;;;;;;6243523;23;20250;-73
2021/05/22 10:04:43;;;;;;;5.60;5.10;;;;;;;;;;6241978;23;20381;-73
2021/05/22 10:07:34;;;;;;;4.73;4.33;;;;;;;;;;6243416;23;20209;-75
2021/05/22 10:10:19;;;;;;;4.83;4.30;;;;;;;;;;6242673;22;20528;-78
2021/05/22 10:13:04;;;;;;;4.97;4.50;;;;;;;;;;6243420;23;20323;-78
2021/05/22 10:15:50;;;;;;;4.90;4.50;;;;;;;;;;6242875;23;20229;-78
2021/05/22 10:18:35;;;;;;;4.90;4.53;;;;;;;;;;6243149;22;20202;-76
2021/05/22 10:21:19;;;;;;;4.80;4.40;;;;;;;;;;6243463;23;20300;-79
2021/05/22 10:24:05;;;;;;;5.23;4.63;;;;;;;;;;6243412;23;20262;-76
2021/05/22 10:26:50;;;;;;;4.87;4.57;;;;;;;;;;6242667;23;20174;-74
2021/05/22 10:29:34;;;;;;;4.80;4.40;;;;;;;;;;6243250;22;20588;-78
2021/05/22 10:32:22;;;;;;;4.90;4.37;;;;;;;;;;6243309;23;20225;-78
2021/05/22 10:35:07;;;;;;;4.97;4.57;;;;;;;;;;6242597;23;20270;-78
2021/05/22 10:37:53;;;;;;;4.87;4.43;;;;;;;;;;6243369;23;20165;-75
2021/05/22 10:40:45;;;;;;;5.63;4.97;;;;;;;;;;6243088;23;20174;-77
2021/05/22 10:43:39;;;;;;;4.87;4.47;;;;;;;;;;6243388;23;20221;-77
2021/05/22 10:46:24;;;;;;;5.20;4.70;;;;;;;;;;6242733;23;20556;-77
2021/05/22 10:49:09;;;;;;;4.30;3.90;;;;;;;;;;6243113;22;20230;-78
2021/05/22 10:52:13;;;;;;;5.53;4.57;;;;;;;;;;6243212;23;20258;-77
2021/05/22 10:55:04;;;;;;;5.63;5.22;;;;;;;;;;6241850;23;20378;-73
2021/05/22 10:58:06;;;;;;;5.20;4.80;;;;;;;;;;6243030;23;20174;-78
2021/05/22 11:01:11;;;;;;;4.37;4.07;;;;;;;;;;6242765;23;20213;-78
2021/05/22 11:04:15;;;;;;;4.30;4.00;;;;;;;;;;6243008;23;20172;-78
2021/05/22 11:07:02;;;;;;;4.20;3.93;;;;;;;;;;6242499;23;20172;-78
2021/05/22 11:09:53;;;;;;;5.10;4.60;;;;;;;;;;6243363;22;20227;-79
2021/05/22 11:12:42;;;;;;;4.90;4.50;;;;;;;;;;6242975;23;20219;-77
2021/05/22 11:15:43;;;;;;;5.97;4.60;;;;;;;;;;6242450;23;20223;-77
2021/05/22 11:18:50;;;;;;;5.10;4.70;;;;;;;;;;6242783;22;20204;-78
2021/05/22 11:21:34;;;;;;;6.60;6.00;;;;;;;;;;6242826;23;20209;-73
2021/05/22 11:24:20;;;;;;;5.73;5.17;;;;;;;;;;6242807;23;20507;-72
2021/05/22 11:27:05;;;;;;;4.80;4.40;;;;;;;;;;6242563;23;20240;-75
2021/05/22 11:29:54;;;;;;;2.73;2.63;;;;;;;;;;6242750;22;20242;-76
2021/05/22 11:32:49;;;;;;;3.33;3.10;;;;;;;;;;6241131;23;20467;-73
2021/05/22 11:35:38;;;;;;;3.67;2.70;;;;;;;;;;6242114;23;20309;-73
2021/05/22 11:38:27;;;;;;;4.50;3.03;;;;;;;;;;6242903;22;20255;-75
2021/05/22 11:41:27;;;;;;;4.97;2.90;;;;;;;;;;6242789;23;20172;-72
2021/05/22 11:44:12;;;;;;;3.13;2.93;;;;;;;;;;6242943;23;20170;-72
2021/05/22 11:46:56;;;;;;;5.00;4.13;;;;;;;;;;6241857;23;20417;-72
2021/05/22 11:49:41;;;;;;;4.33;3.93;;;;;;;;;;6242680;22;20203;-71
2021/05/22 11:52:26;;;;;;;4.60;4.20;;;;;;;;;;6242578;23;20714;-71
2021/05/22 11:55:16;;;;;;;3.90;3.60;;;;;;;;;;6241910;23;20191;-72
2021/05/22 11:58:05;;;;;;;4.33;4.00;;;;;;;;;;6242539;22;20171;-71
2021/05/22 12:00:49;;;;;;;3.80;3.50;;;;;;;;;;6242606;23;20622;-71
2021/05/22 12:03:36;;;;;;;4.27;3.87;;;;;;;;;;6242533;23;20191;-70
2021/05/22 12:06:21;;;;;;;4.47;4.07;;;;;;;;;;6242041;23;20171;-71
2021/05/22 12:09:10;;;;;;;5.00;4.03;;;;;;;;;;6242540;22;20204;-71
2021/05/22 12:11:57;;;;;;;4.77;4.00;;;;;;;;;;6242800;23;20807;-71
2021/05/22 12:14:43;;;;;;;4.30;3.90;;;;;;;;;;6242463;23;20564;-74
2021/05/22 12:17:27;;;;;;;4.17;3.87;;;;;;;;;;6242424;23;20366;-73
2021/05/22 12:20:12;;;;;;;4.90;3.80;;;;;;;;;;6242551;22;20203;-71
2021/05/22 12:22:56;;;;;;;4.57;4.17;;;;;;;;;;6242513;23;20175;-72
2021/05/22 12:25:41;;;;;;;4.80;4.40;;;;;;;;;;6242170;23;20630;-73
2021/05/22 12:28:26;;;;;;;5.97;3.97;;;;;;;;;;6242559;22;20667;-71
2021/05/22 12:31:12;;;;;;;5.17;4.67;;;;;;;;;;6243132;23;20166;-70
2021/05/22 12:33:57;;;;;;;6.23;5.67;;;;;;;;;;6243695;23;20199;-71
2021/05/22 12:36:55;;;;;;;5.33;4.93;;;;;;;;;;6243803;23;20544;-70
2021/05/22 12:39:40;;;;;;;6.85;6.22;;;;;;;;;;6242808;22;20488;-72
2021/05/22 12:42:25;;;;;;;6.17;5.57;;;;;;;;;;6244479;23;20514;-73
2021/05/22 12:45:11;;;;;;;5.80;5.30;;;;;;;;;;6243698;23;20229;-73
2021/05/22 12:47:57;;;;;;;7.23;6.47;;;;;;;;;;6244140;22;20491;-73
2021/05/22 12:50:41;;;;;;;6.90;6.30;;;;;;;;;;6244233;23;20285;-70
2021/05/22 12:53:29;;;;;;;6.67;6.23;;;;;;;;;;6244037;23;20486;-70
2021/05/22 12:56:17;;;;;;;6.97;6.27;;;;;;;;;;6243846;23;20570;-70
2021/05/22 12:59:11;;;;;;;7.13;6.20;;;;;;;;;;6244251;22;20280;-70
2021/05/22 13:02:29;;;;;;;6.43;5.30;;;;;;;;;;6244268;23;20718;-70
2021/05/22 13:05:19;;;;;;;7.13;5.53;;;;;;;;;;6243690;23;20208;-70
2021/05/22 13:08:04;;;;;;;5.17;4.67;;;;;;;;;;6244016;22;20249;-70
2021/05/22 13:10:48;;;;;;;5.33;4.73;;;;;;;;;;6244224;23;20184;-70
2021/05/22 13:13:33;;;;;;;7.70;4.90;;;;;;;;;;6242933;23;20426;-71
2021/05/22 13:16:17;;;;;;;5.83;4.40;;;;;;;;;;6243606;23;20184;-70
2021/05/22 13:19:02;;;;;;;5.53;4.67;;;;;;;;;;6244376;22;20262;-72
2021/05/22 13:21:47;;;;;;;6.30;5.23;;;;;;;;;;6243881;23;20211;-75
2021/05/22 13:24:31;;;;;;;8.47;5.07;;;;;;;;;;6244358;23;20169;-75
2021/05/22 13:27:16;;;;;;;7.53;5.50;;;;;;;;;;6243568;23;20208;-75
2021/05/22 13:30:01;;;;;;;6.80;5.83;;;;;;;;;;6242988;22;20381;-75
2021/05/22 13:32:46;;;;;;;8.30;6.00;;;;;;;;;;6244041;23;20194;-76
2021/05/22 13:35:31;;;;;;;6.07;5.30;;;;;;;;;;6243252;23;20218;-73
2021/05/22 13:38:16;;;;;;;4.80;4.00;;;;;;;;;;6243881;22;20199;-73
2021/05/22 13:41:01;;;;;;;4.47;4.07;;;;;;;;;;6243842;23;20172;-73
2021/05/22 13:43:45;;;;;;;7.53;4.93;;;;;;;;;;6243857;23;20172;-73
2021/05/22 13:46:30;;;;;;;6.17;5.57;;;;;;;;;;6243072;23;20597;-73
2021/05/22 13:49:16;;;;;;;6.97;6.30;;;;;;;;;;6243912;22;20657;-72
2021/05/22 13:52:01;;;;;;;7.60;4.73;;;;;;;;;;6243870;23;20175;-79
2021/05/22 13:54:46;;;;;;;7.13;4.33;;;;;;;;;;6243774;23;20179;-80
2021/05/22 13:57:31;;;;;;;6.30;4.33;;;;;;;;;;6243755;23;20492;-77
2021/05/22 14:00:17;;;;;;;5.30;4.20;;;;;;;;;;6244256;23;20190;-76
2021/05/22 14:03:01;;;;;;;4.77;3.60;;;;;;;;;;6243729;23;20272;-77
2021/05/22 14:05:45;;;;;;;5.23;4.03;;;;;;;;;;6243102;23;20222;-74
2021/05/22 14:08:30;;;;;;;4.77;4.20;;;;;;;;;;6243525;22;20215;-72
2021/05/22 14:11:15;;;;;;;5.57;3.20;;;;;;;;;;6243591;23;20170;-73
2021/05/22 14:14:00;;;;;;;4.13;3.00;;;;;;;;;;6243559;23;20201;-70
2021/05/22 14:16:45;;;;;;;3.07;2.77;;;;;;;;;;6242828;23;20627;-72
2021/05/22 14:19:29;;;;;;;3.97;3.10;;;;;;;;;;6243184;22;20486;-72
2021/05/22 14:22:14;;;;;;;3.67;3.10;;;;;;;;;;6243283;23;20175;-72
2021/05/22 14:24:59;;;;;;;5.13;3.30;;;;;;;;;;6243698;23;20203;-72
2021/05/22 14:27:45;;;;;;;5.77;3.50;;;;;;;;;;6243713;22;20670;-72
2021/05/22 14:30:29;;;;;;;4.50;3.23;;;;;;;;;;6244035;23;20210;-72
2021/05/22 14:33:14;;;;;;;5.27;3.40;;;;;;;;;;6243449;23;20203;-72
2021/05/22 14:36:01;;;;;;;3.80;2.80;;;;;;;;;;6243128;23;20307;-74
2021/05/22 14:38:47;;;;;;;3.17;2.60;;;;;;;;;;6243394;22;20686;-72
2021/05/22 14:41:32;;;;;;;2.70;2.50;;;;;;;;;;6242803;23;20242;-73
2021/05/22 14:44:17;;;;;;;4.43;2.70;;;;;;;;;;6243125;23;20553;-73
2021/05/22 14:47:02;;;;;;;4.23;2.53;;;;;;;;;;6242715;23;20545;-73
2021/05/22 14:49:46;;;;;;;3.70;2.90;;;;;;;;;;6243115;22;20230;-73
2021/05/22 14:52:31;;;;;;;4.13;2.47;;;;;;;;;;6243070;23;20210;-73
2021/05/22 14:55:15;;;;;;;6.70;3.10;;;;;;;;;;6242655;23;20171;-73
2021/05/22 14:58:00;;;;;;;6.40;3.30;;;;;;;;;;6243028;22;20215;-79
2021/05/22 15:00:45;;;;;;;4.00;2.80;;;;;;;;;;6243173;23;20214;-79
2021/05/22 15:03:30;;;;;;;5.50;3.20;;;;;;;;;;6243117;23;20505;-79
2021/05/22 15:06:14;;;;;;;3.90;3.20;;;;;;;;;;6242497;23;20179;-78
2021/05/22 15:08:59;;;;;;;5.27;3.13;;;;;;;;;;6243303;22;20207;-80
2021/05/22 15:11:43;;;;;;;5.03;3.15;;;;;;;;;;6242286;23;20381;-82
2021/05/22 15:14:31;;;;;;;5.10;3.50;;;;;;;;;;6242966;23;20279;-80
2021/05/22 15:17:16;;;;;;;4.90;2.90;;;;;;;;;;6242486;23;20204;-81
2021/05/22 15:20:01;;;;;;;4.33;2.83;;;;;;;;;;6243032;23;20172;-80
2021/05/22 15:22:45;;;;;;;6.00;2.63;;;;;;;;;;6242911;23;20674;-81
2021/05/22 15:25:32;;;;;;;5.67;2.97;;;;;;;;;;6242233;23;20203;-79
2021/05/22 15:28:16;;;;;;;6.63;3.10;;;;;;;;;;6242805;22;20253;-80
2021/05/22 15:31:01;;;;;;;5.80;3.30;;;;;;;;;;6242743;23;20226;-82
2021/05/22 15:33:48;;;;;;;4.37;3.60;;;;;;;;;;6243022;23;20199;-82
2021/05/22 15:36:32;;;;;;;5.17;3.77;;;;;;;;;;6242523;23;20187;-81
2021/05/22 15:39:17;;;;;;;5.40;3.70;;;;;;;;;;6242970;22;20370;-78
2021/05/22 15:42:01;;;;;;;4.77;4.10;;;;;;;;;;6242780;23;20244;-77
2021/05/22 15:44:47;;;;;;;4.53;3.47;;;;;;;;;;6242533;23;20673;-78
2021/05/22 15:48:05;;;;;;;6.70;4.20;;;;;;;;;;6242676;22;20198;-78
2021/05/22 15:59:52;;;;;;;5.43;4.10;;;;;;;;;;6242726;23;20187;-79
2021/05/22 16:02:42;;;;;;;5.63;4.50;;;;;;;;;;6242333;23;20859;-78
2021/05/22 16:05:40;;;;;;;10.10;6.83;;;;;;;;;;6242067;23;20179;-78
2021/05/22 16:08:26;;;;;;;7.03;4.30;;;;;;;;;;6242812;22;20278;-78
2021/05/22 16:11:10;;;;;;;6.40;4.03;;;;;;;;;;6245156;23;20172;-78
2021/05/22 16:13:54;;;;;;;6.17;3.80;;;;;;;;;;6244638;23;20243;-78
2021/05/22 16:16:39;;;;;;;5.80;4.13;;;;;;;;;;6244138;23;20172;-78
2021/05/22 16:19:23;;;;;;;4.53;3.83;;;;;;;;;;6244735;22;20310;-77
2021/05/22 16:22:08;;;;;;;7.47;4.27;;;;;;;;;;6244548;23;20192;-78
2021/05/22 16:24:53;;;;;;;6.30;4.60;;;;;;;;;;6244558;23;20200;-78
2021/05/22 16:27:38;;;;;;;7.60;5.10;;;;;;;;;;6244710;22;20588;-78
2021/05/22 16:30:22;;;;;;;7.50;5.17;;;;;;;;;;6244747;23;20202;-75
2021/05/22 16:33:08;;;;;;;6.03;4.80;;;;;;;;;;6245047;23;20242;-77
2021/05/22 16:35:52;;;;;;;6.27;5.10;;;;;;;;;;6244017;23;20624;-75
2021/05/22 16:38:37;;;;;;;5.23;4.07;;;;;;;;;;6244724;22;20198;-76
2021/05/22 16:41:24;;;;;;;4.83;4.40;;;;;;;;;;6245053;23;20550;-76
2021/05/22 16:44:09;;;;;;;6.20;5.33;;;;;;;;;;6244773;23;20187;-77